Terminal Aerodrome Forecast
Issued by NWS Cleveland, OH

Home | Current Version | Previous Version | Graphics & Text | Print | Product List | Glossary On
Versions: 1 2 3 4 5 6 7 8 9 10 11 12 13 14 15 16 17 18 19 20 21
000
FTUS41 KCLE 231200 AAA
TAFTOL
TAF AMD
KTOL 231219Z 2312/2412 35012KT P6SM BKN025
      TEMPO 2314/2315 SCT025
     FM231500 36012G18KT P6SM SKC
     FM232200 08006KT P6SM SCT250
     FM240200 VRB03KT P6SM SCT100 BKN250=

USA.gov is the U.S. government's official web portal to all federal, state and local government web resources and services.